Terminal Aerodrome Forecast
Issued by NWS

Home | Current Version | Previous Version | Text Only | Print | Product List | Glossary On
Versions: 1 2 3 4 5 6 7 8 9 10 11 12 13 14 15 16 17 18
000
FTUS43 KLSX 202300
TAFSUS
TAF
KSUS 202337Z 2100/2124 02007KT 6SM BR OVC008
      TEMPO 2100/2102 3SM -DZ BR
     FM210400 33006KT P6SM OVC007
     FM211400 32007KT P6SM BKN020
     FM211800 32009KT P6SM SCT050=

USA.gov is the U.S. government's official web portal to all federal, state and local government web resources and services.